Time;durP1;ratioP1;P1;durP2;ratioP2;P2;SDS_P1;SDS_P2;PMS_P1;PMS_P2;Temp;Humidity;BMP_temperature;BMP_pressure;BME280_temperature;BME280_humidity;BME280_pressure;Samples;Min_cycle;Max_cycle;Signal;HPM_P1;HPM_P2
2021/09/03 09:13:35;;;;;;;8.20;7.37;;;33.60;44.60;;;;;;6087250;23;20475;-84
2021/09/03 09:16:08;;;;;;;8.10;7.30;;;33.60;44.10;;;;;;6190747;23;20425;-87
2021/09/03 09:18:45;;;;;;;9.00;8.20;;;33.90;44.20;;;;;;6192610;23;20476;-86
2021/09/03 09:21:31;;;;;;;7.80;7.13;;;33.20;44.40;;;;;;6194735;23;20481;-85
2021/09/03 09:24:01;;;;;;;8.03;7.23;;;33.10;45.10;;;;;;6193694;23;20436;-85
2021/09/03 09:26:45;;;;;;;8.20;7.40;;;33.30;44.30;;;;;;6190010;23;21293;-86
2021/09/03 09:29:19;;;;;;;7.23;6.67;;;32.60;44.90;;;;;;6195550;23;20862;-87
2021/09/03 09:31:51;;;;;;;8.13;7.43;;;32.30;45.70;;;;;;6199211;23;20409;-86
2021/09/03 09:34:23;;;;;;;8.83;7.87;;;32.50;45.40;;;;;;6168559;23;20464;-85
2021/09/03 09:36:54;;;;;;;7.43;6.73;;;33.10;44.80;;;;;;6193148;23;20859;-86
2021/09/03 09:39:23;;;;;;;7.80;7.00;;;32.50;44.70;;;;;;6196279;23;20406;-88
2021/09/03 09:42:03;;;;;;;7.50;6.80;;;32.40;45.20;;;;;;6190786;23;20414;-88
2021/09/03 09:44:35;;;;;;;8.40;7.60;;;32.00;45.80;;;;;;6192463;23;20434;-88
2021/09/03 09:47:05;;;;;;;7.80;6.97;;;32.10;46.30;;;;;;6199606;23;20410;-85
2021/09/03 09:49:36;;;;;;;11.93;7.20;;;32.30;46.10;;;;;;6200283;23;20449;-86
2021/09/03 09:52:04;;;;;;;7.53;6.80;;;33.00;45.40;;;;;;6198951;23;20416;-85
2021/09/03 09:54:32;;;;;;;8.17;7.47;;;32.30;45.70;;;;;;6199932;23;20437;-85
2021/09/03 09:57:02;;;;;;;7.40;6.70;;;32.50;45.10;;;;;;6201380;23;20413;-86
2021/09/03 09:59:31;;;;;;;10.77;7.10;;;32.00;46.00;;;;;;6201238;23;20416;-86
2021/09/03 10:02:03;;;;;;;11.20;8.03;;;33.30;44.60;;;;;;6205108;23;20467;-86
2021/09/03 10:04:32;;;;;;;7.47;6.63;;;33.30;43.90;;;;;;6205845;23;20418;-86
2021/09/03 10:07:01;;;;;;;7.63;6.70;;;33.00;44.20;;;;;;6205995;23;20410;-85
2021/09/03 10:09:33;;;;;;;7.03;6.23;;;33.30;44.10;;;;;;6196703;23;20473;-87
2021/09/03 10:12:02;;;;;;;6.03;5.63;;;32.20;45.00;;;;;;6203038;23;20482;-87
2021/09/03 10:14:33;;;;;;;9.80;6.20;;;31.50;46.60;;;;;;6198624;23;20456;-87
2021/09/03 10:17:02;;;;;;;7.37;6.33;;;31.60;47.20;;;;;;6197896;23;20402;-85
2021/09/03 10:19:35;;;;;;;8.47;7.17;;;32.60;44.70;;;;;;6204294;23;20437;-86
2021/09/03 10:22:23;;;;;;;6.93;6.23;;;32.20;45.20;;;;;;6208538;23;20397;-86
2021/09/03 10:25:08;;;;;;;6.70;6.10;;;31.30;46.40;;;;;;6202390;23;20867;-87
2021/09/03 10:27:35;;;;;;;7.47;6.60;;;32.30;45.30;;;;;;6199862;23;20457;-85
2021/09/03 10:30:17;;;;;;;6.23;5.73;;;32.90;43.50;;;;;;6198541;23;20410;-86
2021/09/03 10:32:47;;;;;;;6.83;6.23;;;32.40;44.20;;;;;;6198057;23;20423;-86
2021/09/03 10:35:19;;;;;;;7.03;6.33;;;31.70;45.20;;;;;;6199193;23;20450;-85
2021/09/03 10:37:50;;;;;;;7.27;6.63;;;31.40;45.70;;;;;;6201069;23;20493;-86
2021/09/03 10:40:38;;;;;;;8.17;6.93;;;31.00;46.40;;;;;;6201553;23;20412;-86
2021/09/03 10:43:06;;;;;;;6.33;5.83;;;30.90;46.90;;;;;;6194063;23;20469;-87
2021/09/03 10:45:41;;;;;;;6.40;5.90;;;31.80;45.40;;;;;;6169399;23;21099;-86
2021/09/03 10:48:14;;;;;;;6.30;5.90;;;31.60;45.60;;;;;;6194383;23;20401;-87
2021/09/03 10:50:52;;;;;;;6.83;6.10;;;31.90;45.30;;;;;;6192632;23;20491;-86
2021/09/03 10:53:31;;;;;;;6.43;5.93;;;31.70;45.40;;;;;;6195738;23;20450;-85
2021/09/03 10:56:06;;;;;;;6.97;6.27;;;31.60;45.20;;;;;;6208416;23;20389;-87
2021/09/03 10:58:49;;;;;;;7.60;6.00;;;31.40;45.60;;;;;;6211291;23;20473;-86
2021/09/03 11:01:27;;;;;;;6.83;6.10;;;32.00;44.40;;;;;;6200108;23;20445;-86
2021/09/03 11:04:01;;;;;;;6.70;5.93;;;31.80;44.30;;;;;;6194176;23;20436;-86
2021/09/03 11:06:32;;;;;;;5.80;5.30;;;31.50;44.80;;;;;;6193189;23;20421;-86
2021/09/03 11:09:01;;;;;;;6.87;6.10;;;32.00;44.40;;;;;;6193064;23;20952;-85
2021/09/03 11:11:30;;;;;;;6.77;6.17;;;31.80;43.80;;;;;;6192776;23;21190;-84
2021/09/03 11:14:18;;;;;;;6.47;5.90;;;31.20;45.10;;;;;;6189443;23;20500;-86
2021/09/03 11:16:51;;;;;;;5.73;5.23;;;30.80;45.50;;;;;;6192011;23;20394;-86
2021/09/03 11:19:25;;;;;;;6.13;5.17;;;31.90;44.10;;;;;;6194640;23;20412;-84
2021/09/03 11:22:24;;;;;;;5.47;5.00;;;31.70;43.90;;;;;;6188645;23;20486;-87
2021/09/03 11:24:56;;;;;;;6.93;5.93;;;31.80;43.90;;;;;;6190327;23;20441;-86
2021/09/03 11:27:27;;;;;;;5.93;5.43;;;31.20;44.70;;;;;;6187712;23;20394;-86
2021/09/03 11:29:57;;;;;;;6.10;5.60;;;31.00;45.30;;;;;;6189883;23;20418;-87
2021/09/03 11:32:26;;;;;;;5.30;4.80;;;31.10;45.60;;;;;;6188010;23;20400;-87
2021/09/03 11:35:00;;;;;;;6.37;5.87;;;31.80;45.00;;;;;;6163699;23;20482;-86
2021/09/03 11:37:34;;;;;;;6.03;5.27;;;32.50;43.70;;;;;;6187000;23;20489;-84
2021/09/03 11:40:04;;;;;;;5.53;5.13;;;32.00;43.70;;;;;;6185565;23;20399;-87
2021/09/03 11:42:33;;;;;;;5.90;5.37;;;31.50;43.60;;;;;;6186594;23;20405;-87
2021/09/03 11:45:12;;;;;;;4.93;4.53;;;32.20;43.80;;;;;;6189452;23;20433;-85
2021/09/03 11:47:55;;;;;;;5.90;5.30;;;32.20;42.40;;;;;;6205418;23;20492;-88
2021/09/03 11:50:27;;;;;;;5.33;4.90;;;31.90;43.30;;;;;;6211203;23;20456;-88
2021/09/03 11:52:58;;;;;;;6.50;5.10;;;31.60;43.70;;;;;;6210853;23;20425;-86
2021/09/03 11:55:25;;;;;;;5.67;5.17;;;31.10;44.80;;;;;;6210703;23;20473;-87
2021/09/03 11:58:07;;;;;;;5.87;5.30;;;31.00;44.90;;;;;;6210308;23;20417;-86
2021/09/03 12:00:39;;;;;;;5.90;5.40;;;31.00;44.40;;;;;;6197144;23;20434;-86
2021/09/03 12:03:11;;;;;;;5.67;5.17;;;30.90;44.80;;;;;;6190260;23;20398;-87
2021/09/03 12:05:40;;;;;;;5.53;5.03;;;30.90;44.80;;;;;;6188405;23;20421;-88
2021/09/03 12:08:11;;;;;;;5.27;4.87;;;31.10;44.70;;;;;;6188074;23;20402;-87
2021/09/03 12:11:00;;;;;;;6.00;5.50;;;31.20;44.70;;;;;;6188895;23;20402;-87
2021/09/03 12:13:33;;;;;;;5.93;4.90;;;31.00;45.00;;;;;;6188271;23;20449;-88
2021/09/03 12:16:01;;;;;;;5.60;5.10;;;31.20;45.20;;;;;;6188514;23;20422;-86
2021/09/03 12:18:38;;;;;;;6.10;5.23;;;31.70;44.60;;;;;;6188954;23;20850;-86
2021/09/03 12:21:19;;;;;;;5.00;4.57;;;31.70;43.80;;;;;;6189295;23;20492;-87
2021/09/03 12:23:56;;;;;;;5.83;5.27;;;31.60;44.40;;;;;;6189431;23;20516;-87
2021/09/03 12:26:33;;;;;;;6.00;5.40;;;31.50;44.30;;;;;;6190340;23;20412;-89
2021/09/03 12:29:00;;;;;;;5.47;5.07;;;31.40;44.00;;;;;;6194401;23;20470;-87
2021/09/03 12:31:31;;;;;;;5.90;5.40;;;31.30;44.30;;;;;;6191921;23;20444;-85
2021/09/03 12:34:00;;;;;;;6.23;5.73;;;31.30;44.70;;;;;;6189884;23;20438;-84
2021/09/03 12:36:32;;;;;;;6.13;5.63;;;31.70;44.40;;;;;;6191958;23;20406;-86
2021/09/03 12:39:03;;;;;;;5.97;5.40;;;31.50;44.70;;;;;;6197824;23;20412;-86
2021/09/03 12:41:33;;;;;;;5.90;5.40;;;31.30;45.20;;;;;;6175213;23;20402;-88
2021/09/03 12:44:18;;;;;;;5.73;5.23;;;31.70;44.60;;;;;;6209014;23;20425;-88
2021/09/03 12:46:45;;;;;;;5.63;5.13;;;31.90;43.80;;;;;;6189480;23;20417;-86
2021/09/03 12:49:12;;;;;;;5.27;4.77;;;31.80;44.40;;;;;;6188729;23;20421;-88
2021/09/03 12:51:43;;;;;;;4.90;4.50;;;32.30;43.20;;;;;;6193470;23;20413;-85
2021/09/03 12:54:12;;;;;;;6.63;5.50;;;32.10;42.60;;;;;;6190456;23;20453;-85
2021/09/03 12:56:40;;;;;;;5.50;4.93;;;32.10;42.50;;;;;;6192989;23;20763;-84
2021/09/03 12:59:07;;;;;;;5.30;4.90;;;32.10;42.30;;;;;;6193912;23;20956;-84
2021/09/03 13:01:35;;;;;;;5.00;4.60;;;31.60;42.70;;;;;;6192901;23;20493;-84
2021/09/03 13:04:03;;;;;;;5.50;5.00;;;31.40;43.60;;;;;;6194111;23;20438;-83
2021/09/03 13:06:29;;;;;;;5.57;5.07;;;31.50;43.60;;;;;;6193386;23;20410;-86
2021/09/03 13:08:56;;;;;;;5.80;5.10;;;31.60;42.80;;;;;;6193498;23;20410;-84
2021/09/03 13:11:23;;;;;;;4.97;4.57;;;31.10;43.80;;;;;;6193909;23;20941;-86
2021/09/03 13:13:50;;;;;;;4.93;4.53;;;31.10;43.60;;;;;;6193004;23;20465;-85
2021/09/03 13:16:17;;;;;;;5.10;4.70;;;30.70;43.60;;;;;;6192854;23;20413;-85
2021/09/03 13:18:43;;;;;;;5.27;4.87;;;30.40;43.80;;;;;;6194140;23;20417;-87
2021/09/03 13:21:10;;;;;;;5.63;5.20;;;30.60;43.90;;;;;;6197215;23;20414;-85
2021/09/03 13:23:37;;;;;;;4.87;4.47;;;30.90;43.50;;;;;;6194015;23;21108;-85
2021/09/03 13:26:03;;;;;;;5.57;4.87;;;31.00;43.10;;;;;;6193855;23;20739;-86
2021/09/03 13:28:42;;;;;;;5.23;4.83;;;31.00;43.40;;;;;;6192720;23;20394;-86
2021/09/03 13:31:09;;;;;;;4.30;3.93;;;31.00;43.00;;;;;;6190783;23;20405;-84
2021/09/03 13:33:35;;;;;;;5.53;5.03;;;30.70;43.20;;;;;;6198994;23;20469;-87
2021/09/03 13:36:02;;;;;;;4.93;4.50;;;30.60;44.00;;;;;;6202425;23;20412;-87
2021/09/03 13:38:29;;;;;;;7.53;4.83;;;30.50;44.30;;;;;;6196303;23;20414;-84
2021/09/03 13:40:56;;;;;;;4.60;4.20;;;30.90;43.80;;;;;;6197327;23;20497;-84
2021/09/03 13:43:23;;;;;;;5.10;4.60;;;30.60;43.60;;;;;;6196544;23;20432;-85
2021/09/03 13:45:49;;;;;;;4.90;4.50;;;30.90;43.50;;;;;;6194046;23;20892;-85
2021/09/03 13:48:16;;;;;;;4.87;4.47;;;31.10;42.10;;;;;;6193900;23;20418;-86
2021/09/03 13:50:43;;;;;;;4.83;4.37;;;30.70;42.20;;;;;;6196045;23;20753;-86
2021/09/03 13:53:10;;;;;;;4.90;4.50;;;30.30;42.50;;;;;;6195426;23;20421;-86
2021/09/03 13:55:36;;;;;;;4.73;4.33;;;30.30;43.30;;;;;;6195404;23;20434;-86
2021/09/03 13:58:03;;;;;;;4.70;4.20;;;30.70;42.90;;;;;;6194447;23;20423;-85
2021/09/03 14:00:30;;;;;;;5.10;4.40;;;30.80;42.90;;;;;;6195654;23;20402;-85
2021/09/03 14:02:58;;;;;;;5.03;4.63;;;30.80;43.20;;;;;;6192477;23;20394;-83
2021/09/03 14:05:29;;;;;;;3.93;3.63;;;30.60;44.00;;;;;;6192113;23;20498;-86
2021/09/03 14:07:56;;;;;;;4.30;4.00;;;30.60;44.10;;;;;;6191160;23;20402;-85
2021/09/03 14:10:23;;;;;;;4.50;4.10;;;30.70;42.80;;;;;;6193138;23;20402;-85
2021/09/03 14:12:49;;;;;;;4.20;3.90;;;30.90;42.30;;;;;;6193250;23;20417;-86
2021/09/03 14:15:16;;;;;;;4.20;3.73;;;30.90;42.90;;;;;;6193196;23;20473;-85
2021/09/03 14:17:43;;;;;;;5.33;4.93;;;31.40;41.20;;;;;;6194150;23;20417;-85
2021/09/03 14:20:10;;;;;;;4.40;4.00;;;31.00;41.10;;;;;;6196898;23;20528;-86
2021/09/03 14:22:37;;;;;;;6.93;4.70;;;30.70;41.50;;;;;;6193438;23;20408;-85
2021/09/03 14:25:04;;;;;;;4.53;4.13;;;30.80;41.00;;;;;;6194980;23;20433;-86
2021/09/03 14:27:31;;;;;;;4.30;4.00;;;30.70;41.60;;;;;;6190064;23;20845;-86
2021/09/03 14:29:58;;;;;;;4.73;4.33;;;30.80;41.40;;;;;;6191065;23;20904;-86
2021/09/03 14:32:26;;;;;;;5.20;4.80;;;30.70;41.60;;;;;;6194047;23;20482;-85
2021/09/03 14:34:53;;;;;;;4.27;3.87;;;30.50;42.30;;;;;;6193028;23;20438;-85
2021/09/03 14:37:20;;;;;;;4.53;4.13;;;30.40;43.10;;;;;;6193241;23;20406;-87
2021/09/03 14:39:46;;;;;;;4.73;4.33;;;30.70;43.00;;;;;;6191964;23;20773;-86
2021/09/03 14:42:13;;;;;;;5.30;4.80;;;30.60;42.70;;;;;;6192557;23;20785;-87
2021/09/03 14:44:40;;;;;;;8.20;7.50;;;30.20;43.60;;;;;;6190574;23;20438;-86
2021/09/03 14:47:07;;;;;;;5.33;4.93;;;30.10;44.20;;;;;;6194158;23;20424;-87
2021/09/03 14:49:33;;;;;;;4.57;4.17;;;30.30;44.70;;;;;;6193320;23;20400;-87
2021/09/03 14:52:00;;;;;;;5.00;4.60;;;30.20;43.70;;;;;;6192724;23;20485;-83
2021/09/03 14:54:27;;;;;;;5.70;4.57;;;30.20;42.90;;;;;;6188548;23;20437;-87
2021/09/03 14:56:54;;;;;;;5.37;4.87;;;29.90;43.80;;;;;;6193549;23;20434;-85
2021/09/03 14:59:21;;;;;;;5.30;4.90;;;29.80;43.80;;;;;;6191691;23;20410;-86
2021/09/03 15:01:49;;;;;;;5.40;4.90;;;29.70;44.60;;;;;;6192238;23;20806;-85
2021/09/03 15:04:17;;;;;;;5.30;4.87;;;29.70;44.80;;;;;;6189366;23;20976;-86
2021/09/03 15:06:44;;;;;;;4.90;4.50;;;29.70;44.30;;;;;;6192752;23;20401;-86
2021/09/03 15:09:10;;;;;;;4.50;4.10;;;29.60;45.00;;;;;;6193530;23;20501;-86
2021/09/03 15:11:37;;;;;;;7.40;6.80;;;29.50;44.20;;;;;;6192529;23;20466;-86
2021/09/03 15:14:05;;;;;;;6.97;5.97;;;29.50;44.60;;;;;;6190169;23;20444;-85
2021/09/03 15:16:33;;;;;;;4.33;4.00;;;29.80;43.70;;;;;;6192628;23;20421;-86
2021/09/03 15:18:59;;;;;;;5.03;4.53;;;29.80;43.40;;;;;;6193625;23;20410;-86
2021/09/03 15:21:26;;;;;;;4.90;4.50;;;29.80;43.90;;;;;;6192337;23;20417;-85
2021/09/03 15:23:53;;;;;;;8.53;7.70;;;29.60;44.10;;;;;;6191364;23;20430;-84
2021/09/03 15:26:19;;;;;;;5.20;4.70;;;29.50;44.20;;;;;;6197126;23;20401;-85
2021/09/03 15:28:46;;;;;;;5.67;4.33;;;29.40;44.20;;;;;;6194761;23;20417;-86
2021/09/03 15:31:13;;;;;;;4.87;4.47;;;29.30;43.90;;;;;;6193634;23;20410;-86
2021/09/03 15:33:40;;;;;;;4.60;4.20;;;29.20;44.40;;;;;;6191659;23;20430;-85
2021/09/03 15:36:07;;;;;;;4.43;4.13;;;29.30;44.50;;;;;;6191099;23;20434;-86
2021/09/03 15:38:33;;;;;;;5.13;4.63;;;29.30;44.40;;;;;;6193445;23;20406;-87
2021/09/03 15:41:00;;;;;;;4.83;4.43;;;29.50;44.30;;;;;;6192785;23;20412;-85
2021/09/03 15:43:27;;;;;;;4.90;4.50;;;29.50;44.80;;;;;;6189892;23;20463;-87
2021/09/03 15:45:54;;;;;;;6.30;3.90;;;29.40;45.20;;;;;;6191647;23;20436;-86
2021/09/03 15:48:21;;;;;;;4.70;4.30;;;29.20;45.20;;;;;;6199849;23;20469;-86
2021/09/03 15:50:48;;;;;;;5.20;4.80;;;28.90;45.30;;;;;;6198370;23;20486;-86
2021/09/03 15:53:15;;;;;;;5.03;4.53;;;28.60;45.90;;;;;;6195794;23;20421;-85
2021/09/03 15:55:43;;;;;;;4.27;3.97;;;28.60;46.00;;;;;;6205233;23;20928;-86
2021/09/03 15:58:11;;;;;;;5.10;4.60;;;28.60;45.90;;;;;;6203277;23;20436;-86
2021/09/03 16:00:38;;;;;;;5.20;4.80;;;28.60;46.10;;;;;;6192506;23;20406;-86
2021/09/03 16:03:06;;;;;;;5.07;4.67;;;28.70;46.20;;;;;;6194163;23;20410;-85
2021/09/03 16:05:33;;;;;;;5.47;4.97;;;28.60;46.80;;;;;;6204130;23;20910;-86
2021/09/03 16:07:59;;;;;;;4.53;3.93;;;28.50;47.30;;;;;;6210073;23;20461;-85
2021/09/03 16:10:26;;;;;;;5.20;4.77;;;28.60;47.40;;;;;;6209975;23;20416;-86
2021/09/03 16:12:53;;;;;;;5.33;4.93;;;28.60;47.80;;;;;;6202556;23;20442;-86
2021/09/03 16:15:20;;;;;;;5.30;4.80;;;28.90;47.20;;;;;;6196999;23;20442;-86
2021/09/03 16:17:47;;;;;;;5.57;5.07;;;28.70;47.30;;;;;;6196668;23;20489;-85
2021/09/03 16:20:13;;;;;;;4.80;4.40;;;28.50;47.20;;;;;;6194697;23;20424;-85
2021/09/03 16:22:40;;;;;;;4.77;4.37;;;28.60;47.60;;;;;;6195080;23;20413;-87
2021/09/03 16:25:08;;;;;;;5.37;4.87;;;28.70;47.40;;;;;;6195174;23;20436;-83
2021/09/03 16:27:35;;;;;;;5.17;4.67;;;28.80;47.20;;;;;;6193375;23;20819;-87
2021/09/03 16:30:04;;;;;;;5.87;5.37;;;28.70;47.50;;;;;;6192396;23;20399;-88
2021/09/03 16:32:31;;;;;;;5.40;4.90;;;28.90;47.20;;;;;;6191595;23;20410;-87
2021/09/03 16:34:58;;;;;;;5.27;4.77;;;28.80;47.10;;;;;;6192007;23;20501;-86
2021/09/03 16:37:25;;;;;;;5.80;5.30;;;28.60;47.40;;;;;;6191825;23;20406;-88
2021/09/03 16:39:52;;;;;;;4.77;4.37;;;28.40;48.40;;;;;;6191128;23;20414;-86
2021/09/03 16:42:22;;;;;;;5.17;4.77;;;28.30;48.50;;;;;;6199242;23;20414;-89
2021/09/03 16:44:49;;;;;;;5.00;4.50;;;28.30;48.60;;;;;;6199718;23;20461;-87
2021/09/03 16:47:16;;;;;;;5.43;5.03;;;28.20;49.00;;;;;;6199472;23;20444;-86
2021/09/03 16:49:45;;;;;;;6.23;5.67;;;28.00;49.20;;;;;;6199164;23;20482;-88
2021/09/03 16:52:13;;;;;;;5.67;5.17;;;28.00;49.60;;;;;;6194497;23;20412;-85
2021/09/03 16:54:41;;;;;;;5.00;4.60;;;28.00;49.30;;;;;;6193689;23;20509;-87
2021/09/03 16:57:12;;;;;;;6.53;4.80;;;27.80;49.70;;;;;;6195855;23;20810;-86
2021/09/03 16:59:44;;;;;;;5.23;4.73;;;27.70;50.00;;;;;;6194377;23;20715;-88
2021/09/03 17:02:11;;;;;;;5.33;4.90;;;27.60;50.50;;;;;;6198167;23;21197;-86
2021/09/03 17:04:39;;;;;;;5.03;4.53;;;27.70;50.30;;;;;;6194060;23;20438;-87
2021/09/03 17:07:07;;;;;;;5.63;5.17;;;28.00;50.20;;;;;;6193010;23;20433;-86
2021/09/03 17:09:34;;;;;;;7.20;5.97;;;27.90;49.90;;;;;;6193383;23;20421;-87
2021/09/03 17:12:01;;;;;;;6.03;4.40;;;27.90;49.80;;;;;;6192787;23;20437;-89
2021/09/03 17:14:28;;;;;;;6.60;6.00;;;27.80;49.80;;;;;;6189244;23;20433;-87
2021/09/03 17:16:55;;;;;;;5.70;5.20;;;27.70;50.20;;;;;;6193755;23;20453;-87
2021/09/03 17:19:22;;;;;;;5.90;5.40;;;27.70;50.80;;;;;;6197131;23;20497;-88
2021/09/03 17:21:49;;;;;;;6.40;5.80;;;27.80;51.30;;;;;;6194426;23;20845;-86
2021/09/03 17:24:19;;;;;;;5.43;4.93;;;27.70;51.70;;;;;;6195319;23;20461;-87
2021/09/03 17:26:45;;;;;;;5.70;5.20;;;27.70;51.60;;;;;;6192357;23;20409;-85
2021/09/03 17:29:13;;;;;;;6.10;5.50;;;27.70;51.80;;;;;;6191021;23;20493;-87
2021/09/03 17:31:39;;;;;;;6.03;5.50;;;27.80;51.70;;;;;;6200016;23;20470;-89
2021/09/03 17:34:08;;;;;;;5.53;5.03;;;27.70;52.50;;;;;;6207960;23;20426;-90
2021/09/03 17:36:36;;;;;;;5.70;5.17;;;27.70;51.10;;;;;;6207966;23;20498;-90
2021/09/03 17:39:03;;;;;;;6.00;5.50;;;27.60;52.20;;;;;;6208586;23;20422;-89
2021/09/03 17:41:53;;;;;;;5.40;4.93;;;27.40;52.50;;;;;;6205774;23;20418;-86
2021/09/03 17:44:27;;;;;;;7.33;6.63;;;27.40;52.70;;;;;;6188375;23;20534;-86
2021/09/03 17:46:54;;;;;;;6.90;6.27;;;27.20;53.10;;;;;;6193210;23;20414;-84
2021/09/03 17:49:39;;;;;;;6.60;6.00;;;27.10;53.50;;;;;;6193936;23;20428;-85
2021/09/03 17:52:30;;;;;;;6.10;5.50;;;27.10;53.60;;;;;;6191487;23;20818;-84
2021/09/03 17:55:26;;;;;;;7.00;6.40;;;27.20;54.00;;;;;;6168905;23;20473;-85
2021/09/03 17:58:03;;;;;;;6.60;5.90;;;27.10;54.70;;;;;;6190066;23;20414;-83
2021/09/03 18:01:04;;;;;;;6.83;6.23;;;27.10;54.40;;;;;;6186534;23;20807;-84
2021/09/03 18:03:38;;;;;;;6.50;5.90;;;27.00;54.50;;;;;;6192190;23;20512;-86
2021/09/03 18:06:16;;;;;;;7.13;6.43;;;26.80;54.80;;;;;;6189998;23;20480;-85
2021/09/03 18:08:57;;;;;;;7.47;6.67;;;26.80;55.00;;;;;;6190315;23;20500;-89
2021/09/03 18:15:13;;;;;;;11.50;8.20;;;26.80;55.90;;;;;;6109199;23;20461;-85
2021/09/03 18:17:45;;;;;;;7.47;6.87;;;26.70;57.30;;;;;;6187957;23;20850;-87
2021/09/03 18:20:22;;;;;;;8.33;7.60;;;26.50;58.10;;;;;;6187351;23;20417;-86
2021/09/03 18:22:59;;;;;;;8.33;7.53;;;26.40;58.90;;;;;;6187906;23;20512;-84
2021/09/03 18:25:26;;;;;;;8.87;7.90;;;26.40;59.40;;;;;;6185974;23;20493;-88
2021/09/03 18:27:53;;;;;;;9.27;8.37;;;26.40;59.70;;;;;;6188618;23;20445;-85
2021/09/03 18:30:23;;;;;;;11.03;7.00;;;26.40;60.50;;;;;;6189313;23;20413;-85
2021/09/03 18:33:06;;;;;;;;;;;;;;;;;;;;;
2021/09/03 18:35:57;;;;;;;8.87;7.97;;;26.30;62.20;;;;;;6182701;23;20858;-84
2021/09/03 18:38:27;;;;;;;9.53;8.60;;;26.20;62.70;;;;;;6187584;23;20419;-85
2021/09/03 18:41:19;;;;;;;9.17;8.27;;;26.20;63.10;;;;;;6189869;23;20474;-86
2021/09/03 18:43:58;;;;;;;10.60;8.00;;;26.30;63.70;;;;;;6187384;23;20429;-86
2021/09/03 18:46:45;;;;;;;8.63;7.83;;;26.30;63.90;;;;;;6187710;23;20413;-84
2021/09/03 18:49:22;;;;;;;11.00;8.83;;;26.30;65.00;;;;;;6187742;23;20484;-88
2021/09/03 18:52:11;;;;;;;9.97;8.97;;;26.20;65.10;;;;;;6187572;23;20453;-83
2021/09/03 18:55:00;;;;;;;9.67;8.77;;;26.20;65.80;;;;;;6189161;23;20438;-84
2021/09/03 19:01:03;;;;;;;10.00;8.33;;;25.90;67.80;;;;;;6185510;23;20433;-86
2021/09/03 19:03:30;;;;;;;9.63;8.57;;;25.90;68.70;;;;;;6185295;23;20441;-88
2021/09/03 19:05:57;;;;;;;10.10;9.10;;;25.70;69.10;;;;;;6185069;23;20441;-83
2021/09/03 19:08:24;;;;;;;9.37;8.40;;;25.70;69.90;;;;;;6186846;23;20406;-85
2021/09/03 19:10:51;;;;;;;10.77;9.77;;;25.60;70.70;;;;;;6184544;23;20413;-85
2021/09/03 19:13:18;;;;;;;11.23;9.03;;;25.50;71.30;;;;;;6186227;23;20445;-84
2021/09/03 19:15:44;;;;;;;12.00;10.67;;;25.70;71.10;;;;;;6186459;23;20445;-84
2021/09/03 19:18:11;;;;;;;14.03;10.53;;;25.70;70.80;;;;;;6191980;23;20418;-86
2021/09/03 19:20:39;;;;;;;9.87;8.87;;;25.60;71.50;;;;;;6186608;23;20414;-87
2021/09/03 19:23:06;;;;;;;10.13;9.27;;;25.40;72.10;;;;;;6184912;23;20435;-85
2021/09/03 19:25:35;;;;;;;10.87;9.53;;;25.40;73.10;;;;;;6188063;23;20418;-83
2021/09/03 19:28:03;;;;;;;9.80;8.80;;;25.20;74.00;;;;;;6189524;23;20413;-86
2021/09/03 19:30:30;;;;;;;11.10;9.97;;;25.20;75.10;;;;;;6188668;23;20457;-84
2021/09/03 19:32:57;;;;;;;10.40;9.40;;;25.10;75.50;;;;;;6187223;23;20476;-84
2021/09/03 19:35:24;;;;;;;11.80;9.87;;;25.00;75.80;;;;;;6187314;23;20776;-87
2021/09/03 19:37:50;;;;;;;11.37;9.70;;;25.00;76.30;;;;;;6187439;23;21118;-86
2021/09/03 19:40:17;;;;;;;11.00;9.43;;;25.10;76.80;;;;;;6189890;23;20410;-86
2021/09/03 19:42:44;;;;;;;11.10;9.10;;;24.90;77.30;;;;;;6191559;23;20437;-89
2021/09/03 19:45:11;;;;;;;10.93;9.83;;;24.90;77.70;;;;;;6187883;23;20434;-86
2021/09/03 19:47:38;;;;;;;10.47;9.53;;;24.80;78.80;;;;;;6193098;23;20386;-85
2021/09/03 19:50:07;;;;;;;10.60;9.50;;;24.70;79.80;;;;;;6194535;23;20485;-86
2021/09/03 19:52:35;;;;;;;12.37;11.10;;;24.60;79.90;;;;;;6195498;23;20960;-85
2021/09/03 19:55:02;;;;;;;11.27;10.03;;;24.60;80.50;;;;;;6189290;23;20428;-83
2021/09/03 19:57:29;;;;;;;10.70;9.60;;;24.60;81.30;;;;;;6188371;23;20449;-86
2021/09/03 19:59:56;;;;;;;10.70;9.70;;;24.60;81.40;;;;;;6184463;23;20412;-85
2021/09/03 20:02:23;;;;;;;10.83;9.83;;;24.50;82.00;;;;;;6186436;23;20406;-85
2021/09/03 20:04:50;;;;;;;10.17;9.17;;;24.50;82.20;;;;;;6184337;23;20484;-87
2021/09/03 20:07:16;;;;;;;10.77;9.70;;;24.50;82.50;;;;;;6196021;23;20426;-90
2021/09/03 20:09:43;;;;;;;10.87;9.90;;;24.30;83.20;;;;;;6205356;23;20497;-91
2021/09/03 20:12:10;;;;;;;10.97;9.97;;;24.30;83.90;;;;;;6203666;23;20382;-91
2021/09/03 20:14:37;;;;;;;10.30;9.30;;;24.20;84.30;;;;;;6189505;23;20443;-87
2021/09/03 20:17:04;;;;;;;11.23;10.13;;;24.20;85.20;;;;;;6190259;23;20443;-88
2021/09/03 20:19:30;;;;;;;10.17;9.23;;;24.20;85.70;;;;;;6188807;23;20405;-86
2021/09/03 20:21:57;;;;;;;9.67;8.87;;;24.10;86.10;;;;;;6185974;23;20892;-84
2021/09/03 20:24:24;;;;;;;11.30;10.20;;;24.10;86.80;;;;;;6188454;23;20428;-85
2021/09/03 20:26:51;;;;;;;13.83;12.30;;;24.10;87.20;;;;;;6185343;23;20417;-85
2021/09/03 20:29:19;;;;;;;15.33;13.20;;;24.20;86.30;;;;;;6191286;23;20764;-86
2021/09/03 20:31:47;;;;;;;11.93;10.70;;;24.20;86.60;;;;;;6188228;23;20464;-84
2021/09/03 20:34:14;;;;;;;12.20;10.47;;;24.10;86.50;;;;;;6184824;23;20451;-83
2021/09/03 20:36:41;;;;;;;13.13;11.80;;;24.10;87.00;;;;;;6185273;23;20426;-85
2021/09/03 20:39:08;;;;;;;12.77;11.37;;;24.20;87.10;;;;;;6182945;23;20452;-86
2021/09/03 20:41:35;;;;;;;11.80;10.70;;;24.00;87.50;;;;;;6185256;23;20416;-85
2021/09/03 20:44:02;;;;;;;13.70;11.83;;;24.00;88.30;;;;;;6182509;23;20433;-88
2021/09/03 20:46:29;;;;;;;13.43;10.93;;;24.00;88.40;;;;;;6188927;23;20512;-86
2021/09/03 20:48:55;;;;;;;13.17;11.87;;;23.90;89.00;;;;;;6189230;23;20414;-84
2021/09/03 20:51:22;;;;;;;11.30;10.30;;;23.90;89.30;;;;;;6188260;23;20414;-85
2021/09/03 20:53:49;;;;;;;12.70;11.40;;;23.70;90.10;;;;;;6186083;23;20440;-86
2021/09/03 20:56:16;;;;;;;12.13;11.03;;;23.70;90.30;;;;;;6186276;23;20532;-89
2021/09/03 20:58:42;;;;;;;12.60;11.33;;;23.60;90.30;;;;;;6184408;23;20421;-86
2021/09/03 21:01:09;;;;;;;14.77;12.13;;;23.70;90.80;;;;;;6184065;23;20402;-87
2021/09/03 21:03:36;;;;;;;13.17;11.73;;;23.60;90.50;;;;;;6185742;23;20426;-86
2021/09/03 21:06:03;;;;;;;12.27;11.17;;;23.60;90.50;;;;;;6159652;23;20766;-87
2021/09/03 21:08:30;;;;;;;10.80;9.90;;;23.50;90.60;;;;;;6189005;23;20422;-87
2021/09/03 21:10:57;;;;;;;13.63;12.33;;;23.60;90.80;;;;;;6188275;23;21283;-83
2021/09/03 21:13:27;;;;;;;12.67;11.50;;;23.40;91.00;;;;;;6188968;23;20430;-84
2021/09/03 21:15:55;;;;;;;13.00;11.87;;;23.40;91.30;;;;;;6190805;23;20442;-85
2021/09/03 21:18:21;;;;;;;14.00;12.10;;;23.30;91.50;;;;;;6192186;23;20437;-90
2021/09/03 21:20:50;;;;;;;16.73;12.47;;;23.30;91.50;;;;;;6208269;23;20422;-91
2021/09/03 21:23:17;;;;;;;12.63;11.43;;;23.20;91.70;;;;;;6194591;23;20501;-84
2021/09/03 21:25:46;;;;;;;12.47;11.00;;;23.10;92.00;;;;;;6186451;23;20424;-84
2021/09/03 21:28:14;;;;;;;11.47;10.27;;;23.20;92.00;;;;;;6179898;23;20485;-84
2021/09/03 21:30:41;;;;;;;11.60;10.60;;;23.10;91.80;;;;;;6182429;23;20414;-88
2021/09/03 21:33:07;;;;;;;13.07;11.87;;;23.00;92.10;;;;;;6182103;23;20414;-85
2021/09/03 21:35:34;;;;;;;11.60;10.50;;;23.00;92.20;;;;;;6182885;23;20410;-86
2021/09/03 21:38:01;;;;;;;12.00;11.00;;;23.00;92.20;;;;;;6183328;23;20421;-85
2021/09/03 21:40:27;;;;;;;11.83;10.73;;;22.90;92.30;;;;;;6186247;23;20418;-89
2021/09/03 21:42:54;;;;;;;12.73;10.77;;;23.00;92.40;;;;;;6187978;23;20414;-90
2021/09/03 21:45:21;;;;;;;12.13;10.43;;;22.90;92.30;;;;;;6195625;23;20418;-85
2021/09/03 21:47:47;;;;;;;11.10;10.20;;;22.90;92.10;;;;;;6189825;23;20420;-88
2021/09/03 21:50:14;;;;;;;11.77;10.67;;;22.90;92.10;;;;;;6186815;23;20414;-87
2021/09/03 21:52:41;;;;;;;10.00;9.10;;;23.00;91.90;;;;;;6185626;23;20417;-86
2021/09/03 21:58:04;;;;;;;10.70;9.67;;;22.70;92.10;;;;;;6181207;23;20458;-86
2021/09/03 22:00:31;;;;;;;10.00;9.10;;;22.60;92.30;;;;;;6185654;23;20408;-86
2021/09/03 22:03:21;;;;;;;9.93;8.93;;;22.60;92.30;;;;;;6184406;23;20418;-87
2021/09/03 22:06:09;;;;;;;10.30;9.07;;;22.60;92.10;;;;;;6185626;23;21201;-86
2021/09/03 22:09:51;;;;;;;10.47;9.30;;;22.60;92.20;;;;;;6182844;23;20479;-87
2021/09/03 22:12:49;;;;;;;10.33;8.97;;;22.70;92.30;;;;;;6035980;23;20390;-88
2021/09/03 22:19:16;;;;;;;10.33;9.33;;;22.40;92.40;;;;;;6091683;23;20465;-88
2021/09/03 22:22:13;;;;;;;;;;;;;;;;;;;;;
2021/09/03 22:25:57;;;;;;;9.83;8.93;;;22.50;92.90;;;;;;6089118;23;20479;-82
2021/09/03 22:29:08;;;;;;;10.00;9.10;;;22.50;93.00;;;;;;6096321;23;20421;-82
2021/09/03 22:35:57;;;;;;;10.50;9.50;;;22.40;92.90;;;;;;6001580;23;20411;-81